createdAt,value
2018-07-03T00:01:33.162Z,1.10
2018-07-03T00:04:01.530Z,1.10
2018-07-03T00:06:29.835Z,2.20
2018-07-03T00:08:58.111Z,1.50
2018-07-03T00:11:25.977Z,1.40
2018-07-03T00:13:54.312Z,1.20
2018-07-03T00:16:27.860Z,1.10
2018-07-03T00:18:56.141Z,1.03
2018-07-03T00:21:24.403Z,1.63
2018-07-03T00:23:52.689Z,1.30
2018-07-03T00:26:20.950Z,1.57
2018-07-03T00:28:49.217Z,1.17
2018-07-03T00:31:17.473Z,1.27
2018-07-03T00:33:45.752Z,1.13
2018-07-03T00:36:14.000Z,1.47
2018-07-03T00:38:42.333Z,1.17
2018-07-03T00:41:10.615Z,1.27
2018-07-03T00:43:38.914Z,1.50
2018-07-03T00:46:07.165Z,1.47
2018-07-03T00:48:35.467Z,1.67
2018-07-03T00:51:04.020Z,1.10
2018-07-03T00:53:32.269Z,1.60
2018-07-03T00:56:00.653Z,1.07
2018-07-03T00:58:28.905Z,1.13
2018-07-03T01:00:58.225Z,1.03
2018-07-03T01:03:26.614Z,1.30
2018-07-03T01:05:55.905Z,1.40
2018-07-03T01:08:24.169Z,1.10
2018-07-03T01:10:52.572Z,1.23
2018-07-03T01:13:21.837Z,0.83
2018-07-03T01:15:50.245Z,1.17
2018-07-03T01:18:18.509Z,1.30
2018-07-03T01:20:46.803Z,1.03
2018-07-03T01:23:15.049Z,1.10
2018-07-03T01:25:43.333Z,1.13
2018-07-03T01:28:11.613Z,2.17
2018-07-03T01:30:40.013Z,1.13
2018-07-03T01:33:08.289Z,1.60
2018-07-03T01:35:36.561Z,1.13
2018-07-03T01:38:05.825Z,1.07
2018-07-03T01:40:34.100Z,1.23
2018-07-03T01:43:02.482Z,1.37
2018-07-03T01:45:31.069Z,1.23
2018-07-03T01:47:59.317Z,1.60
2018-07-03T01:50:27.560Z,1.30
2018-07-03T01:52:55.841Z,1.30
2018-07-03T01:55:24.116Z,1.33
2018-07-03T01:57:53.513Z,1.40
2018-07-03T02:00:21.752Z,2.00
2018-07-03T02:02:50.014Z,1.50
2018-07-03T02:05:18.421Z,1.17
2018-07-03T02:07:46.717Z,1.43
2018-07-03T02:10:14.981Z,1.37
2018-07-03T02:12:43.253Z,1.47
2018-07-03T02:15:11.513Z,1.40
2018-07-03T02:17:40.096Z,1.90
2018-07-03T02:20:08.384Z,1.67
2018-07-03T02:22:36.653Z,1.50
2018-07-03T02:25:04.945Z,1.63
2018-07-03T02:27:34.200Z,1.33
2018-07-03T02:30:02.507Z,1.40
2018-07-03T02:32:31.745Z,1.80
2018-07-03T02:35:00.041Z,1.30
2018-07-03T02:37:28.301Z,1.80
2018-07-03T02:39:56.604Z,1.27
2018-07-03T02:42:24.869Z,1.57
2018-07-03T02:44:53.385Z,1.50
2018-07-03T02:47:21.680Z,1.43
2018-07-03T02:49:50.029Z,1.27
2018-07-03T02:52:18.303Z,1.47
2018-07-03T02:54:46.549Z,1.60
2018-07-03T02:57:15.913Z,1.60
2018-07-03T02:59:44.186Z,1.50
2018-07-03T03:02:12.903Z,1.53
2018-07-03T03:04:41.185Z,1.90
2018-07-03T03:07:09.482Z,1.20
2018-07-03T03:09:37.760Z,2.00
2018-07-03T03:12:06.073Z,2.13
2018-07-03T03:14:34.329Z,1.53
2018-07-03T03:17:02.621Z,1.40
2018-07-03T03:19:30.877Z,1.70
2018-07-03T03:21:59.177Z,1.97
2018-07-03T03:24:27.450Z,1.80
2018-07-03T03:26:55.726Z,1.40
2018-07-03T03:29:24.078Z,2.23
2018-07-03T03:31:52.381Z,1.97
2018-07-03T03:34:20.968Z,2.03
2018-07-03T03:36:50.288Z,2.10
2018-07-03T03:39:19.649Z,1.50
2018-07-03T03:41:47.897Z,1.80
2018-07-03T03:44:16.195Z,1.60
2018-07-03T03:46:44.449Z,2.30
2018-07-03T03:49:14.808Z,2.10
2018-07-03T03:51:43.069Z,2.10
2018-07-03T03:54:11.365Z,2.43
2018-07-03T03:56:39.650Z,2.40
2018-07-03T03:59:07.941Z,1.67
2018-07-03T04:01:36.213Z,2.27
2018-07-03T04:04:04.597Z,2.07
2018-07-03T04:06:32.876Z,2.07
2018-07-03T04:09:01.153Z,1.90
2018-07-03T04:11:29.409Z,1.90
2018-07-03T04:13:57.703Z,1.97
2018-07-03T04:16:25.958Z,2.33
2018-07-03T04:18:54.233Z,2.60
2018-07-03T04:21:22.537Z,1.67
2018-07-03T04:23:50.808Z,2.17
2018-07-03T04:26:19.129Z,1.30
2018-07-03T04:28:48.590Z,2.30
2018-07-03T04:31:16.881Z,3.10
2018-07-03T04:33:45.161Z,1.80
2018-07-03T04:36:13.441Z,2.03
2018-07-03T04:38:41.741Z,1.43
2018-07-03T04:41:10.040Z,5.27
2018-07-03T04:43:38.293Z,5.03
2018-07-03T04:46:06.597Z,2.17
2018-07-03T04:48:34.849Z,2.60
2018-07-03T04:51:04.181Z,2.30
2018-07-03T04:53:32.436Z,2.00
2018-07-03T04:56:00.724Z,1.93
2018-07-03T04:58:29.004Z,2.03
2018-07-03T05:00:57.309Z,2.03
2018-07-03T05:03:25.565Z,2.10
2018-07-03T05:05:53.888Z,2.27
2018-07-03T05:08:22.144Z,1.87
2018-07-03T05:10:50.424Z,2.03
2018-07-03T05:13:18.697Z,1.90
2018-07-03T05:15:46.972Z,1.73
2018-07-03T05:18:15.253Z,2.00
2018-07-03T05:20:43.579Z,2.23
2018-07-03T05:23:11.816Z,1.80
2018-07-03T05:25:40.151Z,1.30
2018-07-03T05:28:08.414Z,2.23
2018-07-03T05:30:37.738Z,2.17
2018-07-03T05:33:06.588Z,1.93
2018-07-03T05:35:34.847Z,1.63
2018-07-03T05:38:04.294Z,2.47
2018-07-03T05:40:32.657Z,1.90
2018-07-03T05:43:01.020Z,2.20
2018-07-03T05:45:29.452Z,2.00
2018-07-03T05:47:57.581Z,1.80
2018-07-03T05:50:25.933Z,1.83
2018-07-03T05:52:55.365Z,1.57
2018-07-03T05:55:23.619Z,2.23
2018-07-03T05:57:51.948Z,1.50
2018-07-03T06:00:20.207Z,2.13
2018-07-03T06:02:48.521Z,1.60
2018-07-03T06:05:16.800Z,1.50
2018-07-03T06:07:45.091Z,2.27
2018-07-03T06:10:13.381Z,1.80
2018-07-03T06:12:41.709Z,1.20
2018-07-03T06:15:10.006Z,1.57
2018-07-03T06:17:38.289Z,2.73
2018-07-03T06:20:07.806Z,2.07
2018-07-03T06:22:36.130Z,1.70
2018-07-03T06:25:04.701Z,1.83
2018-07-03T06:27:32.981Z,1.50
2018-07-03T06:30:01.278Z,1.57
2018-07-03T06:32:29.569Z,1.50
2018-07-03T06:34:57.849Z,2.07
2018-07-03T06:37:27.285Z,2.33
2018-07-03T06:39:56.618Z,1.00
2018-07-03T06:42:24.864Z,1.83
2018-07-03T06:44:53.175Z,1.50
2018-07-03T06:47:21.659Z,1.30
2018-07-03T06:49:49.877Z,1.20
2018-07-03T06:52:18.113Z,1.77
2018-07-03T06:54:46.356Z,1.03
2018-07-03T06:57:15.693Z,1.40
2018-07-03T06:59:43.957Z,1.47
2018-07-03T07:02:12.245Z,0.97
2018-07-03T07:04:40.672Z,1.37
2018-07-03T07:07:08.985Z,1.10
2018-07-03T07:09:37.317Z,1.27
2018-07-03T07:12:05.729Z,1.40
2018-07-03T07:14:33.985Z,0.93
2018-07-03T07:17:02.277Z,1.63
2018-07-03T07:19:30.521Z,1.00
2018-07-03T07:21:58.795Z,1.27
2018-07-03T07:24:27.069Z,1.10
2018-07-03T07:26:56.413Z,1.37
2018-07-03T07:29:24.649Z,1.80
2018-07-03T07:31:52.928Z,1.20
2018-07-03T07:34:21.168Z,0.87
2018-07-03T07:36:49.438Z,1.80
2018-07-03T07:39:17.699Z,1.60
2018-07-03T07:41:46.000Z,1.23
2018-07-03T07:44:14.285Z,1.40
2018-07-03T07:46:42.541Z,1.10
2018-07-03T07:49:10.810Z,1.20
2018-07-03T07:51:39.046Z,1.73
2018-07-03T07:54:08.164Z,0.70
2018-07-03T07:56:36.516Z,1.30
2018-07-03T07:59:05.025Z,1.60
2018-07-03T08:01:33.280Z,1.60
2018-07-03T08:04:01.547Z,1.27
2018-07-03T08:06:29.837Z,1.63
2018-07-03T08:08:58.144Z,1.30
2018-07-03T08:11:26.401Z,1.20
2018-07-03T08:13:54.689Z,1.07
2018-07-03T08:16:22.963Z,0.90
2018-07-03T08:18:51.260Z,1.70
2018-07-03T08:21:19.513Z,1.50
2018-07-03T08:23:47.777Z,1.27
2018-07-03T08:26:16.001Z,1.33
2018-07-03T08:28:44.288Z,1.30
2018-07-03T08:31:12.521Z,1.27
2018-07-03T08:33:41.782Z,1.40
2018-07-03T08:36:10.095Z,1.10
2018-07-03T08:38:38.348Z,1.67
2018-07-03T08:41:06.728Z,1.50
2018-07-03T08:43:35.001Z,1.97
2018-07-03T08:46:04.277Z,1.80
2018-07-03T08:48:33.718Z,2.10
2018-07-03T08:51:01.981Z,1.53
2018-07-03T08:53:30.249Z,1.57
2018-07-03T08:55:58.598Z,2.30
2018-07-03T08:58:27.029Z,2.17
2018-07-03T09:00:55.340Z,1.63
2018-07-03T09:03:23.606Z,1.70
2018-07-03T09:05:51.897Z,1.73
2018-07-03T09:08:20.337Z,1.43
2018-07-03T09:10:48.604Z,1.70
2018-07-03T09:13:16.845Z,1.60
2018-07-03T09:15:45.113Z,1.73
2018-07-03T09:18:13.426Z,2.03
2018-07-03T09:20:41.697Z,1.77
2018-07-03T09:23:09.966Z,2.90
2018-07-03T09:25:38.246Z,1.43
2018-07-03T09:28:06.532Z,2.13
2018-07-03T09:30:35.828Z,2.33
2018-07-03T09:33:04.136Z,1.90
2018-07-03T09:35:32.381Z,2.10
2018-07-03T09:38:01.699Z,2.60
2018-07-03T09:40:29.941Z,2.10
2018-07-03T09:42:58.249Z,3.27
2018-07-03T09:45:26.505Z,2.90
2018-07-03T09:47:55.861Z,3.07
2018-07-03T09:50:24.113Z,3.33
2018-07-03T09:52:52.385Z,2.60
2018-07-03T09:55:20.660Z,3.00
2018-07-03T09:57:48.956Z,3.50
2018-07-03T10:00:21.352Z,3.33
2018-07-03T10:02:49.642Z,3.27
2018-07-03T10:05:17.908Z,2.37
2018-07-03T10:07:46.177Z,2.63
2018-07-03T10:10:14.421Z,2.73
2018-07-03T10:12:42.884Z,3.50
2018-07-03T10:15:11.142Z,2.37
2018-07-03T10:17:39.394Z,2.67
2018-07-03T10:20:08.213Z,2.50
2018-07-03T10:22:36.457Z,2.77
2018-07-03T10:25:04.740Z,3.37
2018-07-03T10:27:32.993Z,3.40
2018-07-03T10:30:02.350Z,2.80
2018-07-03T10:32:30.609Z,3.05
2018-07-03T10:34:58.876Z,3.07
2018-07-03T10:37:27.116Z,3.20
2018-07-03T10:39:56.613Z,3.50
2018-07-03T10:42:24.941Z,3.67
2018-07-03T10:44:54.293Z,3.20
2018-07-03T10:47:23.631Z,2.80
2018-07-03T10:49:51.916Z,3.13
2018-07-03T10:52:20.170Z,3.20
2018-07-03T10:54:48.437Z,3.70
2018-07-03T10:57:16.687Z,2.97
2018-07-03T10:59:44.985Z,3.30
2018-07-03T11:02:13.305Z,3.73
2018-07-03T11:04:41.604Z,2.87
2018-07-03T11:07:10.717Z,4.00
2018-07-03T11:09:40.453Z,3.10
2018-07-03T11:12:08.689Z,2.87
2018-07-03T11:14:36.933Z,2.83
2018-07-03T11:17:05.217Z,2.60
2018-07-03T11:19:33.795Z,2.10
2018-07-03T11:22:02.034Z,1.93
2018-07-03T11:24:30.429Z,2.20
2018-07-03T11:26:58.664Z,2.37
2018-07-03T11:29:26.939Z,3.00
2018-07-03T11:31:55.381Z,3.20
2018-07-03T11:34:23.622Z,2.70
2018-07-03T11:36:51.869Z,3.10
2018-07-03T11:39:20.271Z,2.60
2018-07-03T11:41:48.514Z,3.10
2018-07-03T11:44:16.798Z,2.30
2018-07-03T11:46:45.157Z,2.30
2018-07-03T11:49:13.464Z,2.67
2018-07-03T11:51:41.709Z,1.90
2018-07-03T11:54:10.385Z,2.00
2018-07-03T11:56:38.617Z,2.00
2018-07-03T11:59:06.869Z,7.10
2018-07-03T12:01:35.211Z,4.97
2018-07-03T12:04:03.457Z,1.80
2018-07-03T12:06:31.744Z,1.50
2018-07-03T12:09:00.126Z,1.57
2018-07-03T12:11:29.387Z,1.97
2018-07-03T12:13:57.745Z,2.40
2018-07-03T12:16:26.012Z,2.00
2018-07-03T12:19:00.500Z,2.03
2018-07-03T12:21:29.393Z,2.60
2018-07-03T12:23:59.131Z,2.50
2018-07-03T12:26:27.574Z,1.90
2018-07-03T12:28:55.921Z,1.50
2018-07-03T12:31:24.160Z,1.73
2018-07-03T12:33:53.552Z,1.50
2018-07-03T12:36:21.792Z,1.80
2018-07-03T12:38:50.086Z,1.57
2018-07-03T12:41:18.333Z,1.80
2018-07-03T12:43:46.826Z,1.93
2018-07-03T12:46:15.086Z,1.90
2018-07-03T12:48:43.401Z,2.40
2018-07-03T12:51:12.025Z,1.33
2018-07-03T12:53:40.297Z,1.70
2018-07-03T12:56:08.737Z,1.53
2018-07-03T12:58:37.125Z,1.70
2018-07-03T13:01:05.444Z,1.47
2018-07-03T13:03:33.737Z,2.07
2018-07-03T13:06:02.013Z,2.07
2018-07-03T13:08:30.293Z,1.97
2018-07-03T13:10:58.619Z,2.23
2018-07-03T13:13:26.865Z,2.30
2018-07-03T13:15:55.263Z,2.47
2018-07-03T13:18:24.301Z,2.40
2018-07-03T13:20:54.094Z,2.10
2018-07-03T13:23:23.929Z,2.10
2018-07-03T13:25:52.481Z,2.27
2018-07-03T13:28:21.193Z,1.97
2018-07-03T13:30:49.486Z,2.20
2018-07-03T13:33:17.769Z,1.70
2018-07-03T13:35:46.033Z,2.40
2018-07-03T13:38:14.337Z,1.97
2018-07-03T13:40:42.582Z,2.20
2018-07-03T13:43:10.853Z,2.07
2018-07-03T13:45:42.381Z,2.00
2018-07-03T13:48:11.021Z,2.27
2018-07-03T13:50:39.262Z,1.90
2018-07-03T13:53:07.684Z,1.80
2018-07-03T13:55:35.978Z,1.60
2018-07-03T13:58:04.192Z,2.13
2018-07-03T14:00:32.453Z,1.70
2018-07-03T14:03:00.938Z,1.50
2018-07-03T14:05:29.207Z,1.73
2018-07-03T14:07:57.452Z,1.80
2018-07-03T14:10:25.725Z,1.50
2018-07-03T14:12:53.977Z,1.30
2018-07-03T14:15:22.262Z,1.70
2018-07-03T14:17:50.558Z,1.30
2018-07-03T14:20:18.841Z,2.43
2018-07-03T14:22:47.133Z,1.77
2018-07-03T14:25:15.478Z,1.60
2018-07-03T14:27:43.740Z,2.17
2018-07-03T14:30:12.231Z,1.60
2018-07-03T14:32:40.493Z,2.00
2018-07-03T14:35:08.826Z,2.20
2018-07-03T14:37:37.101Z,2.47
2018-07-03T14:40:05.438Z,2.03
2018-07-03T14:42:33.702Z,2.30
2018-07-03T14:45:01.997Z,2.07
2018-07-03T14:47:30.371Z,2.70
2018-07-03T14:49:58.660Z,2.30
2018-07-03T14:52:26.970Z,1.90
2018-07-03T14:54:55.236Z,2.07
2018-07-03T14:57:23.516Z,2.00
2018-07-03T14:59:51.785Z,2.00
2018-07-03T15:02:20.264Z,1.93
2018-07-03T15:04:48.441Z,1.80
2018-07-03T15:07:16.761Z,1.77
2018-07-03T15:09:45.014Z,2.60
2018-07-03T15:12:13.441Z,1.70
2018-07-03T15:14:41.694Z,1.70
2018-07-03T15:17:09.953Z,2.00
2018-07-03T15:19:43.576Z,1.70
2018-07-03T15:22:11.883Z,1.70
2018-07-03T15:24:40.132Z,1.60
2018-07-03T15:27:08.439Z,1.57
2018-07-03T15:29:36.696Z,1.77
2018-07-03T15:32:05.038Z,1.67
2018-07-03T15:34:33.300Z,1.53
2018-07-03T15:37:01.586Z,1.40
2018-07-03T15:39:29.889Z,1.80
2018-07-03T15:41:58.169Z,1.50
2018-07-03T15:44:37.733Z,1.47
2018-07-03T15:47:06.107Z,1.63
2018-07-03T15:49:34.368Z,1.40
2018-07-03T15:52:02.676Z,1.97
2018-07-03T15:54:30.945Z,1.77
2018-07-03T15:57:00.310Z,1.60
2018-07-03T15:59:29.682Z,2.37
2018-07-03T16:01:57.947Z,1.70
2018-07-03T16:05:36.393Z,1.40
2018-07-03T16:09:10.313Z,1.87
2018-07-03T16:11:39.160Z,1.90
2018-07-03T16:14:07.761Z,1.87
2018-07-03T16:16:36.053Z,1.60
2018-07-03T16:19:09.682Z,1.60
2018-07-03T16:21:37.957Z,1.73
2018-07-03T16:24:06.425Z,1.63
2018-07-03T16:26:34.720Z,2.37
2018-07-03T16:29:03.293Z,2.30
2018-07-03T16:31:31.585Z,2.27
2018-07-03T16:33:59.953Z,3.20
2018-07-03T16:36:28.276Z,2.10
2018-07-03T16:38:56.561Z,2.03
2018-07-03T16:41:24.866Z,2.27
2018-07-03T16:43:53.120Z,2.37
2018-07-03T16:46:21.409Z,2.40
2018-07-03T16:48:49.665Z,1.90
2018-07-03T16:51:19.033Z,2.57
2018-07-03T16:53:47.287Z,3.30
2018-07-03T16:56:16.609Z,2.03
2018-07-03T16:58:45.877Z,2.83
2018-07-03T17:01:14.170Z,2.50
2018-07-03T17:03:42.416Z,2.67
2018-07-03T17:06:10.717Z,3.07
2018-07-03T17:08:38.962Z,2.57
2018-07-03T17:11:07.297Z,2.40
2018-07-03T17:13:35.590Z,1.80
2018-07-03T17:16:03.896Z,2.33
2018-07-03T17:18:32.764Z,1.70
2018-07-03T17:21:01.069Z,2.40
2018-07-03T17:23:29.625Z,2.53
2018-07-03T17:25:57.884Z,2.97
2018-07-03T17:28:26.501Z,2.40
2018-07-03T17:30:54.757Z,2.07
2018-07-03T17:33:23.929Z,2.40
2018-07-03T17:35:52.217Z,3.00
2018-07-03T17:38:21.499Z,2.60
2018-07-03T17:41:01.198Z,1.97
2018-07-03T17:44:38.756Z,2.67
2018-07-03T17:47:07.009Z,2.70
2018-07-03T17:49:35.261Z,2.60
2018-07-03T17:52:03.578Z,2.77
2018-07-03T17:54:31.837Z,2.43
2018-07-03T17:57:00.309Z,2.53
2018-07-03T17:59:28.568Z,3.33
2018-07-03T18:01:56.823Z,2.20
2018-07-03T18:04:25.344Z,3.10
2018-07-03T18:06:53.585Z,3.17
2018-07-03T18:09:21.873Z,2.63
2018-07-03T18:11:50.145Z,3.50
2018-07-03T18:14:18.426Z,2.97
2018-07-03T18:16:46.641Z,2.40
2018-07-03T18:19:20.225Z,3.27
2018-07-03T18:21:48.462Z,2.67
2018-07-03T18:24:16.745Z,3.33
2018-07-03T18:26:45.026Z,2.70
2018-07-03T18:29:13.334Z,3.00
2018-07-03T18:31:43.658Z,3.07
2018-07-03T18:34:11.915Z,3.17
2018-07-03T18:36:40.170Z,3.13
2018-07-03T18:39:09.213Z,3.23
2018-07-03T18:41:37.469Z,3.37
2018-07-03T18:44:05.733Z,2.50
2018-07-03T18:46:35.097Z,2.67
2018-07-03T18:49:03.381Z,3.53
2018-07-03T18:51:31.626Z,2.77
2018-07-03T18:53:59.888Z,2.70
2018-07-03T18:56:28.146Z,3.83
2018-07-03T18:58:56.393Z,3.33
2018-07-03T19:01:24.657Z,3.37
2018-07-03T19:03:52.958Z,2.40
2018-07-03T19:06:21.285Z,2.43
2018-07-03T19:08:49.541Z,3.20
2018-07-03T19:11:17.837Z,3.57
2018-07-03T19:13:46.049Z,4.17
2018-07-03T19:16:14.325Z,4.10
2018-07-03T19:18:42.568Z,2.33
2018-07-03T19:21:10.873Z,3.33
2018-07-03T19:23:39.131Z,2.93
2018-07-03T19:26:07.688Z,3.20
2018-07-03T19:28:36.107Z,3.70
2018-07-03T19:31:04.285Z,2.57
2018-07-03T19:33:32.565Z,3.67
2018-07-03T19:36:00.898Z,3.97
2018-07-03T19:38:29.164Z,2.90
2018-07-03T19:40:57.421Z,3.00
2018-07-03T19:43:27.156Z,5.00
2018-07-03T19:45:56.073Z,3.60
2018-07-03T19:48:24.509Z,3.40
2018-07-03T19:50:53.335Z,3.20
2018-07-03T19:53:21.708Z,4.00
2018-07-03T19:55:51.281Z,3.60
2018-07-03T19:58:19.780Z,3.73
2018-07-03T20:00:49.266Z,3.33
2018-07-03T20:03:17.561Z,4.23
2018-07-03T20:05:46.100Z,3.60
2018-07-03T20:08:15.405Z,4.27
2018-07-03T20:10:43.882Z,3.70
2018-07-03T20:13:14.885Z,4.20
2018-07-03T20:15:43.184Z,3.87
2018-07-03T20:18:12.438Z,3.40
2018-07-03T20:20:40.701Z,3.93
2018-07-03T20:23:10.019Z,4.13
2018-07-03T20:25:38.907Z,3.87
2018-07-03T20:28:07.589Z,4.37
2018-07-03T20:30:36.348Z,4.23
2018-07-03T20:33:04.669Z,3.60
2018-07-03T20:35:32.955Z,4.67
2018-07-03T20:38:02.537Z,4.37
2018-07-03T20:40:41.469Z,4.17
2018-07-03T20:43:09.724Z,4.63
2018-07-03T20:45:37.989Z,4.47
2018-07-03T20:48:06.278Z,3.27
2018-07-03T20:53:27.241Z,3.80
2018-07-03T20:55:55.577Z,4.20
2018-07-03T20:58:24.077Z,3.27
2018-07-03T21:00:52.844Z,4.13
2018-07-03T21:03:23.305Z,4.43
2018-07-03T21:05:51.709Z,4.50
2018-07-03T21:08:20.038Z,6.20
2018-07-03T21:10:48.338Z,4.83
2018-07-03T21:13:16.597Z,4.40
2018-07-03T21:15:46.381Z,4.13
2018-07-03T21:18:16.759Z,3.63
2018-07-03T21:20:45.032Z,4.20
2018-07-03T21:23:18.364Z,4.70
2018-07-03T21:25:46.637Z,4.30
2018-07-03T21:28:14.996Z,3.93
2018-07-03T21:30:43.278Z,4.57
2018-07-03T21:33:11.546Z,4.20
2018-07-03T21:35:39.849Z,4.30
2018-07-03T21:38:08.175Z,5.90
2018-07-03T21:40:36.509Z,4.62
2018-07-03T21:43:04.784Z,4.77
2018-07-03T21:45:33.085Z,5.67
2018-07-03T21:48:01.387Z,4.40
2018-07-03T21:50:29.674Z,5.50
2018-07-03T21:52:57.958Z,5.23
2018-07-03T21:55:26.249Z,4.77
2018-07-03T21:57:54.535Z,4.50
2018-07-03T22:00:34.241Z,5.20
2018-07-03T22:03:02.821Z,5.13
2018-07-03T22:05:31.176Z,5.17
2018-07-03T22:07:59.483Z,4.27
2018-07-03T22:10:27.781Z,5.50
2018-07-03T22:12:56.085Z,5.10
2018-07-03T22:15:24.448Z,5.87
2018-07-03T22:17:52.816Z,4.90
2018-07-03T22:20:21.185Z,4.63
2018-07-03T22:22:49.453Z,5.23
2018-07-03T22:25:17.803Z,5.70
2018-07-03T22:27:46.173Z,5.83
2018-07-03T22:30:14.606Z,5.70
2018-07-03T22:32:42.925Z,6.00
2018-07-03T22:35:12.295Z,5.40
2018-07-03T22:37:40.534Z,6.03
2018-07-03T22:40:08.813Z,6.03
2018-07-03T22:42:37.120Z,5.97
2018-07-03T22:45:05.537Z,5.73
2018-07-03T22:47:34.841Z,6.03
2018-07-03T22:50:03.153Z,5.83
2018-07-03T22:52:31.481Z,6.17
2018-07-03T22:54:59.741Z,5.40
2018-07-03T22:57:28.033Z,6.13
2018-07-03T22:59:56.316Z,6.10
2018-07-03T23:02:24.686Z,7.10
2018-07-03T23:04:52.942Z,6.10
2018-07-03T23:07:21.233Z,6.70
2018-07-03T23:09:49.517Z,7.03
2018-07-03T23:12:18.789Z,6.93
2018-07-03T23:14:48.022Z,6.90
2018-07-03T23:17:16.417Z,6.17
2018-07-03T23:19:44.719Z,7.27
2018-07-03T23:22:13.277Z,6.10
2018-07-03T23:24:42.125Z,6.80
2018-07-03T23:27:10.649Z,7.00
2018-07-03T23:29:38.952Z,7.10
2018-07-03T23:32:07.245Z,6.33
2018-07-03T23:34:35.506Z,5.97
2018-07-03T23:37:03.797Z,6.40
2018-07-03T23:39:32.073Z,7.07
2018-07-03T23:42:00.454Z,5.80
2018-07-03T23:44:28.729Z,7.50
2018-07-03T23:47:08.334Z,6.40
2018-07-03T23:49:48.769Z,7.50
2018-07-03T23:52:28.413Z,6.47
2018-07-03T23:55:08.108Z,7.90
2018-07-03T23:57:47.633Z,5.90
